Wetterdaten: aktuell Donnerstag, 06.05.2021 04:40
Datum Zeit Temp. A. Feuchte A. Luftdruck Regen Wind Sonnenschein UV Solar Windchill Empfang
06.05.2021 04:40 3,6 °C 93 % 1014,4 hPa 0,0 l/m² 0,0 km/h 0 min 0,0 UV-I 0 W/m² 3,6 °C 100 %
06.05.2021 04:30 3,4 °C 93 % 1014,4 hPa 0,0 l/m² 0,0 km/h 0 min 0,0 UV-I 0 W/m² 3,4 °C 100 %
06.05.2021 04:20 3,4 °C 93 % 1014,4 hPa 0,0 l/m² 0,0 km/h 0 min 0,0 UV-I 0 W/m² 3,4 °C 100 %
06.05.2021 04:10 3,4 °C 93 % 1014,3 hPa 0,0 l/m² 0,0 km/h 0 min 0,0 UV-I 0 W/m² 3,4 °C 91 %
06.05.2021 04:00 3,3 °C 93 % 1014,4 hPa 0,0 l/m² 0,0 km/h 0 min 0,0 UV-I 0 W/m² 3,3 °C 100 %
06.05.2021 03:50 3,3 °C 93 % 1014,4 hPa 0,0 l/m² 0,0 km/h 0 min 0,0 UV-I 0 W/m² 3,3 °C 100 %
06.05.2021 03:40 3,2 °C 92 % 1014,5 hPa 0,0 l/m² 0,0 km/h 0 min 0,0 UV-I 0 W/m² 3,2 °C 100 %
06.05.2021 03:30 3,1 °C 92 % 1014,6 hPa 0,0 l/m² 0,0 km/h 0 min 0,0 UV-I 0 W/m² 3,1 °C 100 %
06.05.2021 03:20 3,1 °C 92 % 1014,6 hPa 0,0 l/m² 0,0 km/h 0 min 0,0 UV-I 0 W/m² 3,1 °C 98 %
06.05.2021 03:10 3,1 °C 92 % 1014,7 hPa 0,0 l/m² 0,0 km/h 0 min 0,0 UV-I 0 W/m² 3,1 °C 100 %
06.05.2021 03:00 3,1 °C 92 % 1014,7 hPa 0,0 l/m² 0,0 km/h 0 min 0,0 UV-I 0 W/m² 3,1 °C 100 %
06.05.2021 02:50 3,0 °C 92 % 1014,6 hPa 0,0 l/m² 0,0 km/h 0 min 0,0 UV-I 0 W/m² 3,0 °C 100 %
06.05.2021 02:40 2,9 °C 91 % 1014,6 hPa 0,0 l/m² 0,0 km/h 0 min 0,0 UV-I 0 W/m² 2,9 °C 100 %
06.05.2021 02:30 2,8 °C 91 % 1014,7 hPa 0,0 l/m² 0,0 km/h 0 min 0,0 UV-I 0 W/m² 2,8 °C 100 %
06.05.2021 02:20 2,8 °C 91 % 1014,7 hPa 0,0 l/m² 0,0 km/h 0 min 0,0 UV-I 0 W/m² 2,8 °C 100 %
06.05.2021 02:10 2,7 °C 91 % 1014,7 hPa 0,0 l/m² 0,0 km/h 0 min 0,0 UV-I 0 W/m² 2,7 °C 100 %
06.05.2021 02:00 2,7 °C 90 % 1014,7 hPa 0,0 l/m² 0,0 km/h 0 min 0,0 UV-I 0 W/m² 2,7 °C 100 %
06.05.2021 01:50 2,7 °C 89 % 1014,6 hPa 0,0 l/m² 0,0 km/h 0 min 0,0 UV-I 0 W/m² 2,7 °C 99 %
06.05.2021 01:40 2,7 °C 89 % 1014,5 hPa 0,0 l/m² 0,0 km/h 0 min 0,0 UV-I 0 W/m² 2,7 °C 100 %
06.05.2021 01:30 2,8 °C 89 % 1014,5 hPa 0,0 l/m² 0,0 km/h 0 min 0,0 UV-I 0 W/m² 2,8 °C 100 %
06.05.2021 01:20 2,9 °C 88 % 1014,5 hPa 0,0 l/m² 0,0 km/h 0 min 0,0 UV-I 0 W/m² 2,9 °C 100 %
06.05.2021 01:10 3,1 °C 88 % 1014,6 hPa 0,0 l/m² 0,0 km/h 0 min 0,0 UV-I 0 W/m² 3,1 °C 100 %
06.05.2021 01:00 3,2 °C 88 % 1014,6 hPa 0,0 l/m² 0,0 km/h 0 min 0,0 UV-I 0 W/m² 3,2 °C 100 %
06.05.2021 00:50 3,4 °C 87 % 1014,6 hPa 0,0 l/m² 0,0 km/h 0 min 0,0 UV-I 0 W/m² 3,4 °C 99 %
06.05.2021 00:40 3,6 °C 87 % 1014,6 hPa 0,0 l/m² 0,0 km/h 0 min 0,0 UV-I 0 W/m² 3,6 °C 100 %
06.05.2021 00:30 3,7 °C 87 % 1014,5 hPa 0,0 l/m² 0,0 km/h 0 min 0,0 UV-I 0 W/m² 3,7 °C 100 %
06.05.2021 00:20 3,9 °C 87 % 1014,4 hPa 0,0 l/m² 0,0 km/h 0 min 0,0 UV-I 0 W/m² 3,9 °C 99 %
06.05.2021 00:10 4,0 °C 86 % 1014,4 hPa 0,0 l/m² 0,0 km/h 0 min 0,0 UV-I 0 W/m² 4,0 °C 99 %
06.05.2021 00:00 4,2 °C 86 % 1014,3 hPa 0,0 l/m² 0,0 km/h 0 min 0,0 UV-I 0 W/m² 4,2 °C 100 %
05.05.2021 23:50 4,3 °C 85 % 1014,4 hPa 0,0 l/m² 0,0 km/h 0 min 0,0 UV-I 0 W/m² 4,3 °C 100 %
05.05.2021 23:40 4,4 °C 84 % 1014,5 hPa 0,0 l/m² 0,0 km/h 0 min 0,0 UV-I 0 W/m² 4,4 °C 99 %
05.05.2021 23:30 4,6 °C 83 % 1014,3 hPa 0,0 l/m² 0,0 km/h 0 min 0,0 UV-I 0 W/m² 4,6 °C 100 %
05.05.2021 23:20 4,9 °C 80 % 1014,2 hPa 0,0 l/m² 0,0 km/h 0 min 0,0 UV-I 0 W/m² 4,9 °C 99 %
05.05.2021 23:10 5,2 °C 77 % 1014,4 hPa 0,0 l/m² 0,0 km/h 0 min 0,0 UV-I 0 W/m² 5,2 °C 99 %
05.05.2021 23:00 5,4 °C 77 % 1014,3 hPa 0,0 l/m² 0,0 km/h 0 min 0,0 UV-I 0 W/m² 5,4 °C 98 %
05.05.2021 22:50 5,7 °C 77 % 1014,3 hPa 0,0 l/m² 0,0 km/h 0 min 0,0 UV-I 0 W/m² 5,7 °C 100 %
05.05.2021 22:40 6,1 °C 74 % 1014,3 hPa 0,0 l/m² 0,0 km/h 0 min 0,0 UV-I 0 W/m² 6,1 °C 100 %
05.05.2021 22:30 6,2 °C 74 % 1014,2 hPa 0,0 l/m² 0,0 km/h 0 min 0,0 UV-I 0 W/m² 6,2 °C 100 %
05.05.2021 22:20 6,4 °C 74 % 1014,0 hPa 0,0 l/m² 2,1 km/h 0 min 0,0 UV-I 0 W/m² 6,4 °C 100 %
05.05.2021 22:10 6,7 °C 73 % 1014,0 hPa 0,0 l/m² 0,4 km/h 0 min 0,0 UV-I 0 W/m² 6,7 °C 100 %
05.05.2021 22:00 7,0 °C 70 % 1013,9 hPa 0,0 l/m² 0,5 km/h 0 min 0,0 UV-I 0 W/m² 7,0 °C 100 %
05.05.2021 21:50 7,2 °C 69 % 1013,9 hPa 0,0 l/m² 3,8 km/h 0 min 0,0 UV-I 0 W/m² 7,2 °C 100 %
05.05.2021 21:40 7,4 °C 67 % 1013,7 hPa 0,0 l/m² 6,8 km/h 0 min 0,0 UV-I 0 W/m² 7,1 °C 100 %
05.05.2021 21:30 7,7 °C 66 % 1013,7 hPa 0,0 l/m² 7,8 km/h 0 min 0,0 UV-I 0 W/m² 6,6 °C 100 %
05.05.2021 21:20 7,8 °C 66 % 1013,3 hPa 0,0 l/m² 6,8 km/h 0 min 0,0 UV-I 0 W/m² 7,5 °C 100 %
05.05.2021 21:10 8,1 °C 69 % 1013,0 hPa 0,0 l/m² 2,7 km/h 0 min 0,0 UV-I 0 W/m² 8,1 °C 100 %
05.05.2021 21:00 8,4 °C 67 % 1012,8 hPa 0,0 l/m² 9,7 km/h 0 min 0,0 UV-I 0 W/m² 6,0 °C 100 %
05.05.2021 20:50 8,7 °C 65 % 1012,4 hPa 0,0 l/m² 7,5 km/h 0 min 0,0 UV-I 0 W/m² 7,9 °C 100 %
05.05.2021 20:40 8,8 °C 65 % 1012,4 hPa 0,0 l/m² 8,2 km/h 0 min 0,0 UV-I 0 W/m² 7,5 °C 100 %
05.05.2021 20:30 8,9 °C 65 % 1012,1 hPa 0,0 l/m² 3,8 km/h 0 min 0,0 UV-I 0 W/m² 8,9 °C 100 %
05.05.2021 20:20 9,1 °C 64 % 1012,0 hPa 0,0 l/m² 2,5 km/h 0 min 0,0 UV-I 5 W/m² 9,1 °C 91 %
05.05.2021 20:10 9,2 °C 62 % 1011,8 hPa 0,0 l/m² 4,6 km/h 0 min 0,0 UV-I 9 W/m² 9,2 °C 100 %
05.05.2021 20:00 9,4 °C 59 % 1011,5 hPa 0,0 l/m² 5,9 km/h 0 min 0,0 UV-I 12 W/m² 9,4 °C 100 %
05.05.2021 19:50 9,9 °C 57 % 1011,3 hPa 0,0 l/m² 6,1 km/h 0 min 0,0 UV-I 21 W/m² 9,9 °C 100 %
05.05.2021 19:40 10,2 °C 54 % 1011,3 hPa 0,0 l/m² 9,0 km/h 0 min 0,0 UV-I 57 W/m² 8,4 °C 100 %
05.05.2021 19:30 10,4 °C 53 % 1011,1 hPa 0,0 l/m² 13,7 km/h 0 min 0,0 UV-I 69 W/m² 6,2 °C 100 %
05.05.2021 19:20 10,6 °C 52 % 1010,8 hPa 0,0 l/m² 16,0 km/h 0 min 0,0 UV-I 95 W/m² 5,5 °C 100 %
05.05.2021 19:10 10,7 °C 51 % 1010,7 hPa 0,0 l/m² 16,1 km/h 0 min 0,2 UV-I 91 W/m² 5,5 °C 100 %
05.05.2021 19:00 10,8 °C 56 % 1010,7 hPa 0,0 l/m² 13,6 km/h 10 min 0,5 UV-I 164 W/m² 6,7 °C 100 %
05.05.2021 18:50 10,7 °C 54 % 1010,7 hPa 0,0 l/m² 16,7 km/h 10 min 0,4 UV-I 166 W/m² 5,3 °C 100 %
05.05.2021 18:40 10,8 °C 57 % 1010,6 hPa 0,0 l/m² 15,5 km/h 10 min 0,7 UV-I 173 W/m² 5,9 °C 100 %
05.05.2021 18:30 10,9 °C 58 % 1010,3 hPa 0,0 l/m² 13,5 km/h 10 min 0,8 UV-I 270 W/m² 6,9 °C 100 %
05.05.2021 18:20 10,9 °C 59 % 1010,2 hPa 0,0 l/m² 17,6 km/h 10 min 0,9 UV-I 309 W/m² 5,2 °C 100 %
05.05.2021 18:10 10,9 °C 63 % 1010,1 hPa 0,0 l/m² 15,0 km/h 10 min 1,0 UV-I 356 W/m² 6,2 °C 100 %
05.05.2021 18:00 10,6 °C 68 % 1009,9 hPa 0,0 l/m² 9,5 km/h 10 min 1,1 UV-I 338 W/m² 8,5 °C 100 %
05.05.2021 17:50 10,2 °C 69 % 1009,8 hPa 0,0 l/m² 13,8 km/h 10 min 0,9 UV-I 169 W/m² 5,9 °C 100 %
05.05.2021 17:40 10,0 °C 72 % 1009,6 hPa 0,0 l/m² 7,7 km/h 10 min 1,2 UV-I 298 W/m² 9,1 °C 100 %
05.05.2021 17:30 9,7 °C 72 % 1009,3 hPa 0,0 l/m² 5,8 km/h 10 min 1,3 UV-I 241 W/m² 9,7 °C 99 %
05.05.2021 17:20 9,4 °C 77 % 1009,4 hPa 0,0 l/m² 5,5 km/h 10 min 1,0 UV-I 223 W/m² 9,4 °C 100 %
05.05.2021 17:10 9,2 °C 80 % 1009,4 hPa 0,0 l/m² 2,6 km/h 10 min 0,9 UV-I 135 W/m² 9,2 °C 100 %
05.05.2021 17:00 9,3 °C 78 % 1009,5 hPa 0,0 l/m² 5,7 km/h 10 min 0,9 UV-I 137 W/m² 9,3 °C 100 %
05.05.2021 16:50 9,6 °C 78 % 1009,6 hPa 0,0 l/m² 7,7 km/h 0 min 0,7 UV-I 96 W/m² 8,6 °C 100 %
05.05.2021 16:40 9,9 °C 75 % 1009,3 hPa 0,0 l/m² 9,2 km/h 10 min 1,1 UV-I 145 W/m² 8,0 °C 100 %
05.05.2021 16:30 10,6 °C 74 % 1009,1 hPa 0,0 l/m² 6,3 km/h 10 min 2,2 UV-I 418 W/m² 10,6 °C 100 %
05.05.2021 16:20 10,4 °C 78 % 1009,0 hPa 0,0 l/m² 7,1 km/h 10 min 2,9 UV-I 608 W/m² 9,9 °C 99 %
05.05.2021 16:10 9,8 °C 81 % 1009,0 hPa 0,0 l/m² 8,1 km/h 10 min 3,2 UV-I 635 W/m² 8,6 °C 100 %
05.05.2021 16:00 9,1 °C 85 % 1009,0 hPa 0,0 l/m² 4,9 km/h 10 min 2,9 UV-I 443 W/m² 9,1 °C 100 %
05.05.2021 15:50 8,6 °C 85 % 1008,9 hPa 0,0 l/m² 6,8 km/h 10 min 2,5 UV-I 370 W/m² 8,3 °C 100 %
05.05.2021 15:40 8,2 °C 86 % 1008,9 hPa 0,0 l/m² 6,7 km/h 10 min 2,5 UV-I 367 W/m² 8,0 °C 100 %
05.05.2021 15:30 7,8 °C 88 % 1008,9 hPa 0,0 l/m² 5,0 km/h 10 min 1,9 UV-I 265 W/m² 7,8 °C 100 %
05.05.2021 15:20 7,7 °C 87 % 1009,1 hPa 0,0 l/m² 2,3 km/h 0 min 0,9 UV-I 96 W/m² 7,7 °C 100 %
05.05.2021 15:10 7,6 °C 87 % 1009,2 hPa 0,0 l/m² 3,2 km/h 0 min 0,7 UV-I 71 W/m² 7,6 °C 100 %
05.05.2021 15:00 7,5 °C 89 % 1009,1 hPa 0,0 l/m² 4,4 km/h 0 min 0,8 UV-I 81 W/m² 7,5 °C 100 %
05.05.2021 14:50 7,5 °C 90 % 1008,9 hPa 0,0 l/m² 2,9 km/h 0 min 0,8 UV-I 76 W/m² 7,5 °C 99 %
05.05.2021 14:40 7,5 °C 90 % 1009,0 hPa 0,0 l/m² 2,2 km/h 0 min 0,4 UV-I 61 W/m² 7,5 °C 100 %
05.05.2021 14:30 7,5 °C 90 % 1008,8 hPa 0,2 l/m² 2,7 km/h 0 min 0,0 UV-I 42 W/m² 7,5 °C 100 %
05.05.2021 14:20 7,7 °C 90 % 1009,0 hPa 0,2 l/m² 5,8 km/h 0 min 0,5 UV-I 59 W/m² 7,7 °C 100 %
05.05.2021 14:10 8,1 °C 91 % 1008,6 hPa 0,6 l/m² 2,1 km/h 10 min 1,1 UV-I 104 W/m² 8,1 °C 100 %
05.05.2021 14:00 8,1 °C 91 % 1008,4 hPa 0,4 l/m² 1,8 km/h 10 min 1,2 UV-I 114 W/m² 8,1 °C 100 %
05.05.2021 13:50 8,1 °C 91 % 1008,4 hPa 0,0 l/m² 1,2 km/h 10 min 1,2 UV-I 123 W/m² 8,1 °C 99 %
05.05.2021 13:40 8,1 °C 91 % 1008,3 hPa 0,0 l/m² 1,2 km/h 0 min 1,0 UV-I 98 W/m² 8,1 °C 100 %
05.05.2021 13:30 8,0 °C 91 % 1008,3 hPa 0,0 l/m² 1,7 km/h 10 min 1,6 UV-I 167 W/m² 8,0 °C 99 %
05.05.2021 13:20 7,8 °C 91 % 1008,2 hPa 0,0 l/m² 2,0 km/h 10 min 1,2 UV-I 125 W/m² 7,8 °C 99 %
05.05.2021 13:10 7,8 °C 91 % 1008,0 hPa 0,2 l/m² 1,0 km/h 10 min 1,2 UV-I 116 W/m² 7,8 °C 91 %
05.05.2021 13:00 7,6 °C 91 % 1008,1 hPa 0,0 l/m² 0,4 km/h 10 min 1,1 UV-I 103 W/m² 7,6 °C 99 %
05.05.2021 12:50 7,4 °C 90 % 1008,1 hPa 0,0 l/m² 2,6 km/h 0 min 0,5 UV-I 59 W/m² 7,4 °C 100 %
05.05.2021 12:40 7,6 °C 90 % 1007,9 hPa 0,0 l/m² 2,1 km/h 0 min 0,3 UV-I 55 W/m² 7,6 °C 100 %
05.05.2021 12:30 7,8 °C 90 % 1007,9 hPa 0,0 l/m² 2,5 km/h 10 min 1,4 UV-I 127 W/m² 7,8 °C 100 %
05.05.2021 12:20 7,8 °C 91 % 1007,9 hPa 0,2 l/m² 1,5 km/h 10 min 1,4 UV-I 137 W/m² 7,8 °C 100 %
05.05.2021 12:10 7,7 °C 91 % 1007,8 hPa 0,0 l/m² 1,4 km/h 10 min 1,4 UV-I 138 W/m² 7,7 °C 100 %
05.05.2021 12:00 7,7 °C 90 % 1007,5 hPa 0,2 l/m² 1,9 km/h 10 min 1,4 UV-I 151 W/m² 7,7 °C 99 %
05.05.2021 11:50 7,4 °C 90 % 1007,5 hPa 0,0 l/m² 3,4 km/h 10 min 1,9 UV-I 219 W/m² 7,4 °C 100 %
05.05.2021 11:40 7,3 °C 91 % 1007,3 hPa 0,0 l/m² 3,4 km/h 10 min 2,4 UV-I 269 W/m² 7,3 °C 90 %
05.05.2021 11:30 7,1 °C 91 % 1007,2 hPa 0,0 l/m² 3,8 km/h 10 min 2,4 UV-I 272 W/m² 7,1 °C 100 %
05.05.2021 11:20 7,3 °C 92 % 1007,2 hPa 0,0 l/m² 0,6 km/h 10 min 2,1 UV-I 265 W/m² 7,3 °C 100 %
05.05.2021 11:10 6,9 °C 92 % 1007,0 hPa 0,0 l/m² 0,7 km/h 10 min 2,3 UV-I 283 W/m² 6,9 °C 99 %
05.05.2021 11:00 6,7 °C 92 % 1007,2 hPa 0,2 l/m² 4,4 km/h 10 min 1,2 UV-I 137 W/m² 6,7 °C 100 %
05.05.2021 10:50 6,7 °C 91 % 1007,3 hPa 0,2 l/m² 3,0 km/h 0 min 0,8 UV-I 96 W/m² 6,7 °C 100 %
05.05.2021 10:40 6,7 °C 90 % 1007,0 hPa 0,4 l/m² 3,1 km/h 0 min 0,0 UV-I 52 W/m² 6,7 °C 100 %
05.05.2021 10:30 6,8 °C 89 % 1006,9 hPa 1,4 l/m² 4,1 km/h 0 min 0,0 UV-I 41 W/m² 6,8 °C 100 %
05.05.2021 10:20 7,0 °C 87 % 1007,1 hPa 1,0 l/m² 7,5 km/h 0 min 0,0 UV-I 35 W/m² 6,1 °C 100 %
05.05.2021 10:11 7,2 °C 85 % 1007,1 hPa 0,8 l/m² 12,4 km/h 0 min 0,0 UV-I 34 W/m² 3,1 °C 99 %
05.05.2021 09:50 8,0 °C 83 % 1006,7 hPa 0,0 l/m² 8,8 km/h 0 min 0,0 UV-I 28 W/m² 6,2 °C 100 %
05.05.2021 09:40 8,1 °C 83 % 1006,3 hPa 0,0 l/m² 11,0 km/h 0 min 0,0 UV-I 20 W/m² 4,9 °C 100 %
05.05.2021 09:30 8,3 °C 82 % 1006,1 hPa 0,0 l/m² 12,4 km/h 0 min 0,0 UV-I 27 W/m² 4,3 °C 99 %
05.05.2021 09:20 8,4 °C 81 % 1005,7 hPa 0,0 l/m² 15,5 km/h 0 min 0,0 UV-I 30 W/m² 3,0 °C 100 %
05.05.2021 09:10 8,6 °C 81 % 1005,5 hPa 0,0 l/m² 14,1 km/h 0 min 0,0 UV-I 17 W/m² 3,8 °C 100 %
05.05.2021 09:00 8,9 °C 81 % 1005,2 hPa 0,0 l/m² 10,0 km/h 0 min 0,0 UV-I 23 W/m² 6,4 °C 100 %
05.05.2021 08:50 9,1 °C 82 % 1005,1 hPa 0,0 l/m² 13,9 km/h 0 min 0,0 UV-I 20 W/m² 4,5 °C 100 %
05.05.2021 08:40 9,3 °C 84 % 1005,0 hPa 0,0 l/m² 16,3 km/h 0 min 0,0 UV-I 22 W/m² 3,7 °C 100 %
05.05.2021 08:30 10,1 °C 88 % 1004,6 hPa 0,0 l/m² 14,0 km/h 0 min 0,0 UV-I 20 W/m² 5,7 °C 100 %
05.05.2021 08:20 10,4 °C 90 % 1004,3 hPa 0,0 l/m² 2,1 km/h 0 min 0,0 UV-I 22 W/m² 10,4 °C 100 %
05.05.2021 08:10 10,3 °C 90 % 1003,9 hPa 0,0 l/m² 0,0 km/h 0 min 0,0 UV-I 38 W/m² 10,3 °C 100 %
05.05.2021 08:00 10,2 °C 90 % 1003,9 hPa 0,0 l/m² 0,0 km/h 0 min 0,0 UV-I 39 W/m² 10,2 °C 100 %
05.05.2021 07:50 10,0 °C 90 % 1003,9 hPa 0,0 l/m² 0,0 km/h 0 min 0,0 UV-I 41 W/m² 10,0 °C 100 %
05.05.2021 07:40 9,9 °C 91 % 1003,9 hPa 0,0 l/m² 0,0 km/h 0 min 0,0 UV-I 62 W/m² 9,9 °C 100 %
05.05.2021 07:30 9,7 °C 91 % 1003,7 hPa 0,0 l/m² 0,1 km/h 0 min 0,2 UV-I 79 W/m² 9,7 °C 99 %
05.05.2021 07:20 9,6 °C 91 % 1003,9 hPa 0,0 l/m² 0,1 km/h 0 min 0,0 UV-I 27 W/m² 9,6 °C 99 %
05.05.2021 07:10 9,5 °C 91 % 1003,9 hPa 0,0 l/m² 0,0 km/h 0 min 0,0 UV-I 20 W/m² 9,5 °C 100 %
05.05.2021 07:00 9,4 °C 91 % 1003,8 hPa 0,0 l/m² 0,0 km/h 0 min 0,0 UV-I 15 W/m² 9,4 °C 100 %
05.05.2021 06:50 9,5 °C 91 % 1003,8 hPa 0,0 l/m² 0,0 km/h 0 min 0,0 UV-I 18 W/m² 9,5 °C 99 %
05.05.2021 06:40 9,4 °C 90 % 1003,8 hPa 0,0 l/m² 0,0 km/h 0 min 0,0 UV-I 21 W/m² 9,4 °C 93 %
05.05.2021 06:30 9,4 °C 90 % 1003,8 hPa 0,0 l/m² 0,0 km/h 0 min 0,0 UV-I 14 W/m² 9,4 °C 100 %
05.05.2021 06:20 9,3 °C 90 % 1003,9 hPa 0,0 l/m² 0,0 km/h 0 min 0,0 UV-I 23 W/m² 9,3 °C 100 %
05.05.2021 06:10 9,3 °C 90 % 1003,9 hPa 0,0 l/m² 0,0 km/h 0 min 0,0 UV-I 16 W/m² 9,3 °C 100 %
05.05.2021 06:00 9,4 °C 89 % 1004,0 hPa 0,0 l/m² 0,0 km/h 0 min 0,0 UV-I 7 W/m² 9,4 °C 100 %
05.05.2021 05:50 9,4 °C 89 % 1003,9 hPa 0,0 l/m² 0,0 km/h 0 min 0,0 UV-I 0 W/m² 9,4 °C 99 %
05.05.2021 05:40 9,5 °C 89 % 1004,0 hPa 0,0 l/m² 0,0 km/h 0 min 0,0 UV-I 0 W/m² 9,5 °C 100 %
05.05.2021 05:30 9,6 °C 89 % 1004,0 hPa 0,0 l/m² 0,0 km/h 0 min 0,0 UV-I 0 W/m² 9,6 °C 100 %
05.05.2021 05:20 9,6 °C 89 % 1004,2 hPa 0,0 l/m² 0,0 km/h 0 min 0,0 UV-I 0 W/m² 9,6 °C 100 %
05.05.2021 05:10 9,7 °C 89 % 1004,2 hPa 0,0 l/m² 0,0 km/h 0 min 0,0 UV-I 0 W/m² 9,7 °C 91 %
05.05.2021 05:00 9,7 °C 88 % 1004,3 hPa 0,0 l/m² 0,0 km/h 0 min 0,0 UV-I 0 W/m² 9,7 °C 100 %
_ Min-Zeit 02:10 19:10 07:30 - 04:40 - - - 02:10 11:40
Minimum _ 2,7 °C 51 % 1003,7 hPa - 0,0 km/h - - - 2,7 °C 90 %
_ Max-Zeit 18:30 04:40 03:10 10:30 18:20 19:00 16:10 16:10 16:30 03:50
Maximum _ 10,9 °C 93 % 1014,7 hPa 1,4 l/m² 17,6 km/h
NW
10 min 3,2 UV-I 635 W/m² 10,6 °C 100 %
Durchschnitt _ 7,6 °C 83 % 1009,4 hPa #6,0 l/m² 3,7 km/h #0 min. 0,0 UV-I 0 W/m² 6,9 °C 99 %